createdAt,value
2018-08-13T00:00:32.680Z,19.3
2018-08-13T00:01:34.785Z,19.3
2018-08-13T00:02:36.879Z,19.3
2018-08-13T00:03:38.966Z,19.3
2018-08-13T00:04:41.061Z,19.3
2018-08-13T00:05:43.165Z,19.3
2018-08-13T00:06:45.257Z,19.3
2018-08-13T00:07:47.646Z,19.3
2018-08-13T00:08:49.740Z,19.3
2018-08-13T00:09:52.111Z,19.2
2018-08-13T00:10:54.201Z,19.2
2018-08-13T00:11:56.302Z,19.2
2018-08-13T00:12:58.385Z,19.2
2018-08-13T00:14:00.489Z,19.2
2018-08-13T00:15:02.982Z,19.2
2018-08-13T00:16:05.077Z,19.2
2018-08-13T00:17:07.472Z,19.3
2018-08-13T00:18:09.951Z,19.3
2018-08-13T00:19:12.044Z,19.2
2018-08-13T00:20:14.133Z,19.3
2018-08-13T00:21:16.244Z,19.3
2018-08-13T00:22:18.615Z,19.2
2018-08-13T00:23:21.001Z,19.2
2018-08-13T00:24:23.100Z,19.2
2018-08-13T00:25:25.183Z,19.2
2018-08-13T00:26:27.291Z,19.2
2018-08-13T00:27:29.391Z,19.2
2018-08-13T00:28:31.783Z,19.2
2018-08-13T00:29:34.560Z,19.2
2018-08-13T00:30:36.664Z,19.2
2018-08-13T00:31:38.758Z,19.2
2018-08-13T00:32:40.845Z,19.2
2018-08-13T00:33:42.961Z,19.2
2018-08-13T00:34:45.048Z,19.2
2018-08-13T00:35:47.433Z,19.2
2018-08-13T00:36:49.535Z,19.3
2018-08-13T00:37:51.633Z,19.2
2018-08-13T00:38:53.716Z,19.2
2018-08-13T00:39:55.808Z,19.2
2018-08-13T00:40:57.898Z,19.2
2018-08-13T00:42:00.383Z,19.2
2018-08-13T00:43:02.872Z,19.2
2018-08-13T00:44:05.357Z,19.2
2018-08-13T00:45:07.749Z,19.2
2018-08-13T00:46:09.860Z,19.2
2018-08-13T00:47:11.949Z,19.2
2018-08-13T00:48:14.647Z,19.2
2018-08-13T00:49:16.747Z,19.2
2018-08-13T00:50:18.830Z,19.2
2018-08-13T00:51:20.932Z,19.2
2018-08-13T00:52:23.629Z,19.1
2018-08-13T00:53:26.049Z,19.1
2018-08-13T00:54:28.130Z,19.2
2018-08-13T00:55:30.650Z,19.1
2018-08-13T00:56:32.739Z,19.1
2018-08-13T00:57:34.824Z,19.1
2018-08-13T00:58:37.215Z,19.1
2018-08-13T00:59:39.303Z,19.1
2018-08-13T01:00:41.397Z,19.1
2018-08-13T01:01:43.489Z,19.1
2018-08-13T01:02:45.888Z,19.1
2018-08-13T01:03:48.263Z,19.1
2018-08-13T01:04:50.662Z,19.1
2018-08-13T01:05:52.762Z,19.1
2018-08-13T01:06:55.232Z,19.1
2018-08-13T01:07:57.725Z,19
2018-08-13T01:09:00.110Z,19
2018-08-13T01:10:02.197Z,19
2018-08-13T01:11:04.291Z,19
2018-08-13T01:12:06.395Z,18.9
2018-08-13T01:13:08.492Z,18.9
2018-08-13T01:14:10.589Z,18.9
2018-08-13T01:15:13.002Z,19
2018-08-13T01:16:15.107Z,18.9
2018-08-13T01:17:17.204Z,18.9
2018-08-13T01:18:19.293Z,18.9
2018-08-13T01:19:21.399Z,18.9
2018-08-13T01:20:23.875Z,18.8
2018-08-13T01:21:26.260Z,18.8
2018-08-13T01:22:28.355Z,18.8
2018-08-13T01:23:30.437Z,18.8
2018-08-13T01:24:32.547Z,18.7
2018-08-13T01:25:34.643Z,18.8
2018-08-13T01:26:36.743Z,18.8
2018-08-13T01:27:39.114Z,18.7
2018-08-13T01:28:41.221Z,18.7
2018-08-13T01:29:43.315Z,18.7
2018-08-13T01:30:45.407Z,18.7
2018-08-13T01:31:47.519Z,18.7
2018-08-13T01:32:49.604Z,18.7
2018-08-13T01:33:51.990Z,18.7
2018-08-13T01:34:54.077Z,18.6
2018-08-13T01:35:56.499Z,18.7
2018-08-13T01:36:58.874Z,18.7
2018-08-13T01:38:01.265Z,18.6
2018-08-13T01:39:03.677Z,18.6
2018-08-13T01:40:05.762Z,18.6
2018-08-13T01:41:08.160Z,18.6
2018-08-13T01:42:10.545Z,18.6
2018-08-13T01:43:12.631Z,18.6
2018-08-13T01:44:14.726Z,18.6
2018-08-13T01:45:17.124Z,18.5
2018-08-13T01:46:19.502Z,18.5
2018-08-13T01:47:21.599Z,18.5
2018-08-13T01:48:23.691Z,18.5
2018-08-13T01:49:25.774Z,18.5
2018-08-13T01:50:27.874Z,18.5
2018-08-13T01:51:30.258Z,18.5
2018-08-13T01:52:32.361Z,18.4
2018-08-13T01:53:34.449Z,18.4
2018-08-13T01:54:36.824Z,18.4
2018-08-13T01:55:38.919Z,18.4
2018-08-13T01:56:41.006Z,18.4
2018-08-13T01:57:43.394Z,18.4
2018-08-13T01:58:45.489Z,18.3
2018-08-13T01:59:47.589Z,18.3
2018-08-13T02:00:49.669Z,18.3
2018-08-13T02:01:52.350Z,18.3
2018-08-13T02:02:54.829Z,18.3
2018-08-13T02:03:56.918Z,18.3
2018-08-13T02:04:59.027Z,18.3
2018-08-13T02:06:01.105Z,18.3
2018-08-13T02:07:03.199Z,18.2
2018-08-13T02:08:05.289Z,18.2
2018-08-13T02:09:07.393Z,18.2
2018-08-13T02:10:09.477Z,18.3
2018-08-13T02:11:11.583Z,18.2
2018-08-13T02:12:13.972Z,18.2
2018-08-13T02:13:16.055Z,18.2
2018-08-13T02:14:18.157Z,18.2
2018-08-13T02:15:20.252Z,18.2
2018-08-13T02:16:22.626Z,18.2
2018-08-13T02:17:24.720Z,18.2
2018-08-13T02:18:26.822Z,18.1
2018-08-13T02:19:28.914Z,18.1
2018-08-13T02:20:31.012Z,18.1
2018-08-13T02:21:33.106Z,18.2
2018-08-13T02:22:35.187Z,18.2
2018-08-13T02:23:37.283Z,18.2
2018-08-13T02:24:39.772Z,18.2
2018-08-13T02:25:41.853Z,18.1
2018-08-13T02:26:43.952Z,18.1
2018-08-13T02:27:46.050Z,18.1
2018-08-13T02:28:48.151Z,18.1
2018-08-13T02:29:50.233Z,18.1
2018-08-13T02:30:52.330Z,18.1
2018-08-13T02:31:54.421Z,18
2018-08-13T02:32:57.607Z,18
2018-08-13T02:33:59.693Z,18
2018-08-13T02:35:01.801Z,18
2018-08-13T02:36:03.895Z,18
2018-08-13T02:37:05.986Z,18
2018-08-13T02:38:08.388Z,18
2018-08-13T02:39:11.012Z,18
2018-08-13T02:40:13.472Z,18
2018-08-13T02:41:15.860Z,17.9
2018-08-13T02:42:17.971Z,17.9
2018-08-13T02:43:20.353Z,17.9
2018-08-13T02:44:22.840Z,17.9
2018-08-13T02:45:24.944Z,17.9
2018-08-13T02:46:27.026Z,17.8
2018-08-13T02:47:29.417Z,17.9
2018-08-13T02:48:31.513Z,17.9
2018-08-13T02:49:33.989Z,17.8
2018-08-13T02:50:36.083Z,17.9
2018-08-13T02:51:38.488Z,17.8
2018-08-13T02:52:40.577Z,17.8
2018-08-13T02:53:43.678Z,17.8
2018-08-13T02:54:46.060Z,17.9
2018-08-13T02:55:48.536Z,17.8
2018-08-13T02:56:50.632Z,17.8
2018-08-13T02:57:52.738Z,17.8
2018-08-13T02:58:55.117Z,17.8
2018-08-13T02:59:57.213Z,17.8
2018-08-13T03:00:59.705Z,17.8
2018-08-13T03:02:02.086Z,17.8
2018-08-13T03:03:04.199Z,17.8
2018-08-13T03:04:06.300Z,17.8
2018-08-13T03:05:08.401Z,17.8
2018-08-13T03:06:10.490Z,17.8
2018-08-13T03:07:12.884Z,17.8
2018-08-13T03:08:14.969Z,17.8
2018-08-13T03:09:17.464Z,17.8
2018-08-13T03:10:19.562Z,17.8
2018-08-13T03:11:21.957Z,17.8
2018-08-13T03:12:24.455Z,17.8
2018-08-13T03:13:26.547Z,17.7
2018-08-13T03:14:28.940Z,17.7
2018-08-13T03:15:32.006Z,17.7
2018-08-13T03:16:34.420Z,17.7
2018-08-13T03:17:36.514Z,17.7
2018-08-13T03:18:38.916Z,17.7
2018-08-13T03:19:41.026Z,17.6
2018-08-13T03:20:43.114Z,17.6
2018-08-13T03:21:45.907Z,17.6
2018-08-13T03:22:48.306Z,17.6
2018-08-13T03:23:50.698Z,17.6
2018-08-13T03:24:53.171Z,17.6
2018-08-13T03:25:55.265Z,17.6
2018-08-13T03:26:57.355Z,17.6
2018-08-13T03:27:59.744Z,17.6
2018-08-13T03:29:01.849Z,17.6
2018-08-13T03:30:04.248Z,17.6
2018-08-13T03:31:07.012Z,17.6
2018-08-13T03:32:10.087Z,17.6
2018-08-13T03:33:12.463Z,17.6
2018-08-13T03:34:14.944Z,17.6
2018-08-13T03:35:17.430Z,17.6
2018-08-13T03:36:19.506Z,17.6
2018-08-13T03:37:21.993Z,17.6
2018-08-13T03:38:24.370Z,17.6
2018-08-13T03:39:26.477Z,17.6
2018-08-13T03:40:28.559Z,17.6
2018-08-13T03:41:30.664Z,17.6
2018-08-13T03:42:32.759Z,17.6
2018-08-13T03:43:34.845Z,17.6
2018-08-13T03:44:36.939Z,17.6
2018-08-13T03:45:39.041Z,17.6
2018-08-13T03:46:41.132Z,17.7
2018-08-13T03:47:43.235Z,17.7
2018-08-13T03:48:45.310Z,17.7
2018-08-13T03:49:47.700Z,17.7
2018-08-13T03:50:49.794Z,17.6
2018-08-13T03:51:52.275Z,17.6
2018-08-13T03:52:54.385Z,17.6
2018-08-13T03:53:56.559Z,17.6
2018-08-13T03:54:58.565Z,17.7
2018-08-13T03:56:00.669Z,17.7
2018-08-13T03:57:02.761Z,17.7
2018-08-13T03:58:04.844Z,17.7
2018-08-13T03:59:06.937Z,17.7
2018-08-13T04:00:09.024Z,17.7
2018-08-13T04:01:11.120Z,17.7
2018-08-13T04:02:13.511Z,17.7
2018-08-13T04:03:15.604Z,17.7
2018-08-13T04:04:17.691Z,17.8
2018-08-13T04:05:19.797Z,17.8
2018-08-13T04:06:21.886Z,17.8
2018-08-13T04:07:23.979Z,17.8
2018-08-13T04:08:26.465Z,17.8
2018-08-13T04:09:28.540Z,17.8
2018-08-13T04:10:30.926Z,17.8
2018-08-13T04:11:33.020Z,17.8
2018-08-13T04:12:35.119Z,17.8
2018-08-13T04:13:37.202Z,17.8
2018-08-13T04:14:39.302Z,17.7
2018-08-13T04:15:41.399Z,17.7
2018-08-13T04:16:43.490Z,17.6
2018-08-13T04:17:45.598Z,17.6
2018-08-13T04:18:47.680Z,17.6
2018-08-13T04:19:49.775Z,17.6
2018-08-13T04:20:51.863Z,17.6
2018-08-13T04:21:53.967Z,17.6
2018-08-13T04:22:56.056Z,17.6
2018-08-13T04:23:58.153Z,17.6
2018-08-13T04:25:00.534Z,17.6
2018-08-13T04:26:02.640Z,17.6
2018-08-13T04:27:04.723Z,17.7
2018-08-13T04:28:07.106Z,17.7
2018-08-13T04:29:09.203Z,17.7
2018-08-13T04:30:11.300Z,17.8
2018-08-13T04:31:13.390Z,17.8
2018-08-13T04:32:15.484Z,17.8
2018-08-13T04:33:17.577Z,17.8
2018-08-13T04:34:19.666Z,17.8
2018-08-13T04:35:21.768Z,17.8
2018-08-13T04:36:24.435Z,17.8
2018-08-13T04:37:26.522Z,17.9
2018-08-13T04:38:29.061Z,17.9
2018-08-13T04:39:31.117Z,17.9
2018-08-13T04:40:33.211Z,17.9
2018-08-13T04:41:35.312Z,17.9
2018-08-13T04:42:37.392Z,17.9
2018-08-13T04:43:39.487Z,17.9
2018-08-13T04:44:41.581Z,17.9
2018-08-13T04:45:43.680Z,17.9
2018-08-13T04:46:45.777Z,17.9
2018-08-13T04:47:47.883Z,17.9
2018-08-13T04:48:49.980Z,17.9
2018-08-13T04:49:52.073Z,17.9
2018-08-13T04:50:54.181Z,17.9
2018-08-13T04:51:56.269Z,17.8
2018-08-13T04:52:58.361Z,17.9
2018-08-13T04:54:00.453Z,18
2018-08-13T04:55:02.566Z,18
2018-08-13T04:56:04.942Z,18
2018-08-13T04:57:07.036Z,18
2018-08-13T04:58:09.135Z,18
2018-08-13T04:59:11.221Z,18
2018-08-13T05:00:13.612Z,18.1
2018-08-13T05:01:16.002Z,18.1
2018-08-13T05:02:18.393Z,18.1
2018-08-13T05:03:20.495Z,18.1
2018-08-13T05:04:22.575Z,18.2
2018-08-13T05:05:24.677Z,18.2
2018-08-13T05:06:26.769Z,18.2
2018-08-13T05:07:29.361Z,18.3
2018-08-13T05:08:31.855Z,18.3
2018-08-13T05:09:33.961Z,18.3
2018-08-13T05:10:36.044Z,18.3
2018-08-13T05:11:38.148Z,18.3
2018-08-13T05:12:40.628Z,18.3
2018-08-13T05:13:42.722Z,18.3
2018-08-13T05:14:44.822Z,18.3
2018-08-13T05:15:47.211Z,18.3
2018-08-13T05:16:49.311Z,18.4
2018-08-13T05:17:51.408Z,18.4
2018-08-13T05:18:53.511Z,18.3
2018-08-13T05:19:55.594Z,18.3
2018-08-13T05:20:57.697Z,18.3
2018-08-13T05:21:59.791Z,18.3
2018-08-13T05:23:01.881Z,18.3
2018-08-13T05:24:03.991Z,18.3
2018-08-13T05:25:06.078Z,18.4
2018-08-13T05:26:08.460Z,18.4
2018-08-13T05:27:10.837Z,18.3
2018-08-13T05:28:12.943Z,18.3
2018-08-13T05:29:15.030Z,18.3
2018-08-13T05:30:17.142Z,18.3
2018-08-13T05:31:19.231Z,18.3
2018-08-13T05:32:21.317Z,18.3
2018-08-13T05:33:23.812Z,18.3
2018-08-13T05:34:26.201Z,18.3
2018-08-13T05:35:28.279Z,18.3
2018-08-13T05:36:30.375Z,18.3
2018-08-13T05:37:32.479Z,18.4
2018-08-13T05:38:34.572Z,18.4
2018-08-13T05:39:37.269Z,18.3
2018-08-13T05:40:39.365Z,18.3
2018-08-13T05:41:41.836Z,18.3
2018-08-13T05:42:43.936Z,18.3
2018-08-13T05:43:46.034Z,18.1
2018-08-13T05:44:48.405Z,18.2
2018-08-13T05:45:51.212Z,18.2
2018-08-13T05:46:53.601Z,18.1
2018-08-13T05:47:55.701Z,18.2
2018-08-13T05:48:57.808Z,18.3
2018-08-13T05:49:59.894Z,18.3
2018-08-13T05:51:01.995Z,18.3
2018-08-13T05:52:04.369Z,18.3
2018-08-13T05:53:06.476Z,18.3
2018-08-13T05:54:08.561Z,18.4
2018-08-13T05:55:11.049Z,18.4
2018-08-13T05:56:13.150Z,18.4
2018-08-13T05:57:15.232Z,18.4
2018-08-13T05:58:17.332Z,18.5
2018-08-13T05:59:19.425Z,18.5
2018-08-13T06:00:21.522Z,18.6
2018-08-13T06:01:23.604Z,18.6
2018-08-13T06:02:26.093Z,18.7
2018-08-13T06:03:28.187Z,18.7
2018-08-13T06:04:30.280Z,18.8
2018-08-13T06:05:32.695Z,18.8
2018-08-13T06:06:34.785Z,18.9
2018-08-13T06:07:36.876Z,19
2018-08-13T06:08:38.979Z,19.1
2018-08-13T06:09:41.076Z,19.1
2018-08-13T06:10:43.162Z,19.2
2018-08-13T06:11:45.855Z,19.3
2018-08-13T06:12:47.760Z,19.4
2018-08-13T06:13:49.853Z,19.4
2018-08-13T06:14:52.352Z,19.5
2018-08-13T06:15:54.448Z,19.6
2018-08-13T06:16:56.940Z,19.7
2018-08-13T06:17:59.062Z,19.8
2018-08-13T06:19:01.124Z,19.9
2018-08-13T06:20:03.224Z,20
2018-08-13T06:21:05.318Z,20
2018-08-13T06:22:07.813Z,20.1
2018-08-13T06:23:10.261Z,20.1
2018-08-13T06:24:12.706Z,20.2
2018-08-13T06:25:15.386Z,20.2
2018-08-13T06:26:17.492Z,20.2
2018-08-13T06:27:19.578Z,20.3
2018-08-13T06:28:21.675Z,20.3
2018-08-13T06:29:23.772Z,20.3
2018-08-13T06:30:26.146Z,20.4
2018-08-13T06:31:28.256Z,20.4
2018-08-13T06:32:30.356Z,20.4
2018-08-13T06:33:32.460Z,20.4
2018-08-13T06:34:34.592Z,20.5
2018-08-13T06:35:36.702Z,20.5
2018-08-13T06:36:38.791Z,20.5
2018-08-13T06:37:40.884Z,20.5
2018-08-13T06:38:42.995Z,20.5
2018-08-13T06:39:45.090Z,20.6
2018-08-13T06:40:47.489Z,20.6
2018-08-13T06:41:49.592Z,20.6
2018-08-13T06:42:51.688Z,20.6
2018-08-13T06:43:53.773Z,20.7
2018-08-13T06:44:55.869Z,20.7
2018-08-13T06:45:57.960Z,20.8
2018-08-13T06:47:00.463Z,20.8
2018-08-13T06:48:02.832Z,20.8
2018-08-13T06:49:05.335Z,20.9
2018-08-13T06:50:08.005Z,20.9
2018-08-13T06:51:10.119Z,20.9
2018-08-13T06:52:12.213Z,20.9
2018-08-13T06:53:14.304Z,21
2018-08-13T06:54:16.682Z,21
2018-08-13T06:55:18.792Z,21
2018-08-13T06:56:20.885Z,21.1
2018-08-13T06:57:22.983Z,21.1
2018-08-13T06:58:25.080Z,21.1
2018-08-13T06:59:27.194Z,21.1
2018-08-13T07:00:29.278Z,21.1
2018-08-13T07:01:31.375Z,21.1
2018-08-13T07:02:33.476Z,21.1
2018-08-13T07:03:35.559Z,21.2
2018-08-13T07:04:37.668Z,21.1
2018-08-13T07:05:40.052Z,21.1
2018-08-13T07:06:42.152Z,21.2
2018-08-13T07:07:44.236Z,21.2
2018-08-13T07:08:46.341Z,21.2
2018-08-13T07:09:48.434Z,21.1
2018-08-13T07:10:50.526Z,21
2018-08-13T07:11:52.923Z,21.1
2018-08-13T07:12:55.011Z,21.2
2018-08-13T07:13:57.500Z,21.2
2018-08-13T07:14:59.606Z,21.1
2018-08-13T07:16:01.709Z,21.2
2018-08-13T07:17:03.798Z,21.3
2018-08-13T07:18:05.900Z,21.3
2018-08-13T07:19:07.999Z,21.4
2018-08-13T07:20:10.482Z,21.4
2018-08-13T07:21:12.978Z,21.4
2018-08-13T07:22:15.550Z,21.4
2018-08-13T07:23:17.884Z,21.5
2018-08-13T07:24:19.991Z,21.6
2018-08-13T07:25:22.083Z,21.6
2018-08-13T07:26:24.176Z,21.7
2018-08-13T07:27:26.280Z,21.8
2018-08-13T07:28:28.370Z,21.8
2018-08-13T07:29:30.476Z,21.9
2018-08-13T07:30:32.865Z,22
2018-08-13T07:31:34.970Z,22
2018-08-13T07:32:37.066Z,22.1
2018-08-13T07:33:39.680Z,22.1
2018-08-13T07:34:41.690Z,22.2
2018-08-13T07:35:44.079Z,22.2
2018-08-13T07:36:46.169Z,22.4
2018-08-13T07:37:48.568Z,22.5
2018-08-13T07:38:50.999Z,22.6
2018-08-13T07:39:53.088Z,22.5
2018-08-13T07:40:55.171Z,22.6
2018-08-13T07:41:57.292Z,22.7
2018-08-13T07:42:59.394Z,22.8
2018-08-13T07:44:01.497Z,22.9
2018-08-13T07:45:04.289Z,22.9
2018-08-13T07:46:06.379Z,22.8
2018-08-13T07:47:08.477Z,22.9
2018-08-13T07:48:10.584Z,22.9
2018-08-13T07:49:12.691Z,22.9
2018-08-13T07:50:14.780Z,23.1
2018-08-13T07:51:16.886Z,23.2
2018-08-13T07:52:18.985Z,23.2
2018-08-13T07:53:21.091Z,23.2
2018-08-13T07:54:23.204Z,23.4
2018-08-13T07:55:25.620Z,23.3
2018-08-13T07:56:27.713Z,23.4
2018-08-13T07:57:29.822Z,23.3
2018-08-13T07:58:31.919Z,23.5
2018-08-13T07:59:34.304Z,23.6
2018-08-13T08:00:36.720Z,23.6
2018-08-13T08:01:38.809Z,23.7
2018-08-13T08:02:41.207Z,23.5
2018-08-13T08:03:43.309Z,23.6
2018-08-13T08:04:45.706Z,23.7
2018-08-13T08:05:47.796Z,23.8
2018-08-13T08:06:49.914Z,23.8
2018-08-13T08:07:52.025Z,23.7
2018-08-13T08:08:54.123Z,23.6
2018-08-13T08:09:56.237Z,23.7
2018-08-13T08:10:58.613Z,23.9
2018-08-13T08:12:00.712Z,23.9
2018-08-13T08:13:02.807Z,24
2018-08-13T08:14:05.246Z,24
2018-08-13T08:15:07.335Z,24
2018-08-13T08:16:09.446Z,24.1
2018-08-13T08:17:12.198Z,24.4
2018-08-13T08:18:14.287Z,24.5
2018-08-13T08:19:16.404Z,24.9
2018-08-13T08:20:18.507Z,25.1
2018-08-13T08:21:20.676Z,25.5
2018-08-13T08:22:22.705Z,25.4
2018-08-13T08:23:24.820Z,25.3
2018-08-13T08:24:26.919Z,25.5
2018-08-13T08:25:29.026Z,25.5
2018-08-13T08:26:31.419Z,25.7
2018-08-13T08:27:33.511Z,26
2018-08-13T08:28:35.616Z,26
2018-08-13T08:29:37.729Z,26.3
2018-08-13T08:30:39.823Z,26.3
2018-08-13T08:31:41.939Z,26.7
2018-08-13T08:32:44.332Z,26.9
2018-08-13T08:33:46.463Z,26.7
2018-08-13T08:34:48.921Z,26.5
2018-08-13T08:35:50.963Z,26.5
2018-08-13T08:36:53.456Z,26.6
2018-08-13T08:37:55.933Z,26.9
2018-08-13T08:38:58.055Z,26.9
2018-08-13T08:40:00.438Z,26.9
2018-08-13T08:41:02.826Z,26.5
2018-08-13T08:42:04.935Z,26.2
2018-08-13T08:43:07.023Z,26.2
2018-08-13T08:44:09.527Z,26.5
2018-08-13T08:45:11.921Z,26.7
2018-08-13T08:46:14.426Z,26.9
2018-08-13T08:47:16.519Z,26.7
2018-08-13T08:48:18.628Z,26.4
2018-08-13T08:49:20.735Z,26.3
2018-08-13T08:50:23.238Z,26.6
2018-08-13T08:51:25.326Z,26.9
2018-08-13T08:52:27.441Z,27.3
2018-08-13T08:53:29.553Z,27.7
2018-08-13T08:54:31.969Z,27.6
2018-08-13T08:55:34.071Z,27.3
2018-08-13T08:56:36.757Z,27.2
2018-08-13T08:57:39.244Z,27
2018-08-13T08:58:41.355Z,27
2018-08-13T08:59:43.459Z,27.2
2018-08-13T09:00:45.563Z,27.1
2018-08-13T09:01:47.663Z,27.2
2018-08-13T09:02:49.774Z,27.5
2018-08-13T09:03:51.873Z,27.9
2018-08-13T09:04:53.985Z,28
2018-08-13T09:05:56.461Z,28.1
2018-08-13T09:06:58.902Z,27.9
2018-08-13T09:08:01.313Z,28.1
2018-08-13T09:09:03.413Z,28.2
2018-08-13T09:10:05.525Z,28.6
2018-08-13T09:11:07.628Z,29
2018-08-13T09:12:09.749Z,28.4
2018-08-13T09:13:11.848Z,28.2
2018-08-13T09:14:14.030Z,28
2018-08-13T09:15:16.082Z,28.3
2018-08-13T09:16:18.201Z,28.6
2018-08-13T09:17:20.601Z,28.9
2018-08-13T09:18:22.999Z,28.9
2018-08-13T09:19:25.135Z,28.9
2018-08-13T09:20:27.207Z,28.9
2018-08-13T09:21:29.326Z,28.5
2018-08-13T09:22:31.433Z,28.6
2018-08-13T09:23:33.542Z,28.8
2018-08-13T09:24:35.664Z,28.7
2018-08-13T09:25:37.910Z,28.5
2018-08-13T09:26:39.885Z,28.6
2018-08-13T09:27:41.987Z,28.7
2018-08-13T09:28:44.096Z,28.6
2018-08-13T09:29:46.217Z,28.5
2018-08-13T09:30:48.323Z,29
2018-08-13T09:31:50.461Z,28.7
2018-08-13T09:32:52.578Z,28.7
2018-08-13T09:33:54.678Z,29.6
2018-08-13T09:34:56.795Z,29.3
2018-08-13T09:35:59.202Z,29
2018-08-13T09:37:01.298Z,29
2018-08-13T09:38:03.414Z,29
2018-08-13T09:39:05.527Z,29.2
2018-08-13T09:40:07.638Z,29.1
2018-08-13T09:41:09.757Z,29.4
2018-08-13T09:42:11.865Z,29.2
2018-08-13T09:43:13.978Z,29.5
2018-08-13T09:44:16.479Z,29.7
2018-08-13T09:45:18.891Z,30.2
2018-08-13T09:46:20.990Z,30.4
2018-08-13T09:47:23.103Z,30.1
2018-08-13T09:48:25.221Z,30
2018-08-13T09:49:27.708Z,30.2
2018-08-13T09:50:29.838Z,30.4
2018-08-13T09:51:32.042Z,30
2018-08-13T09:52:34.574Z,30
2018-08-13T09:53:36.981Z,29.9
2018-08-13T09:54:39.105Z,29.9
2018-08-13T09:55:41.219Z,30.2
2018-08-13T09:56:43.719Z,30.7
2018-08-13T09:57:45.929Z,30.5
2018-08-13T09:58:48.324Z,30.4
2018-08-13T09:59:50.443Z,30.6
2018-08-13T10:00:53.001Z,30.6
2018-08-13T10:01:55.140Z,30.4
2018-08-13T10:02:57.539Z,30.5
2018-08-13T10:03:59.663Z,30.5
2018-08-13T10:05:01.786Z,30.4
2018-08-13T10:06:04.293Z,31.1
2018-08-13T10:07:06.394Z,31.3
2018-08-13T10:08:08.526Z,31.2
2018-08-13T10:09:11.124Z,31.4
2018-08-13T10:10:13.559Z,31.3
2018-08-13T10:11:16.357Z,30.6
2018-08-13T10:12:18.476Z,30.7
2018-08-13T10:13:20.871Z,30.9
2018-08-13T10:14:22.998Z,31.1
2018-08-13T10:15:25.107Z,31.3
2018-08-13T10:16:27.220Z,31.4
2018-08-13T10:17:29.370Z,31.5
2018-08-13T10:18:31.463Z,31.5
2018-08-13T10:19:33.567Z,31.8
2018-08-13T10:20:35.978Z,31.2
2018-08-13T10:21:38.386Z,31
2018-08-13T10:22:40.780Z,31.1
2018-08-13T10:23:42.902Z,31.3
2018-08-13T10:24:45.298Z,32
2018-08-13T10:25:47.417Z,32
2018-08-13T10:26:49.521Z,32
2018-08-13T10:27:51.644Z,32
2018-08-13T10:28:54.048Z,32
2018-08-13T10:29:56.179Z,32.1
2018-08-13T10:30:58.613Z,32.4
2018-08-13T10:32:00.717Z,32.2
2018-08-13T10:33:02.836Z,32
2018-08-13T10:34:04.960Z,32.2
2018-08-13T10:35:07.386Z,32.2
2018-08-13T10:36:09.490Z,31.5
2018-08-13T10:37:11.607Z,32
2018-08-13T10:38:13.718Z,31.6
2018-08-13T10:39:15.832Z,31.9
2018-08-13T10:40:18.256Z,31.4
2018-08-13T10:41:20.976Z,31.8
2018-08-13T10:42:23.088Z,31.8
2018-08-13T10:43:25.249Z,32.1
2018-08-13T10:44:27.330Z,32.5
2018-08-13T10:45:29.443Z,32.2
2018-08-13T10:46:31.564Z,32.3
2018-08-13T10:47:33.664Z,32.2
2018-08-13T10:48:36.179Z,32.1
2018-08-13T10:49:38.299Z,32.2
2018-08-13T10:50:40.423Z,32.5
2018-08-13T10:51:42.521Z,32.6
2018-08-13T10:52:44.657Z,32.5
2018-08-13T10:53:46.774Z,32.5
2018-08-13T10:54:48.881Z,32.6
2018-08-13T10:55:51.009Z,32.3
2018-08-13T10:56:53.112Z,32.7
2018-08-13T10:57:55.228Z,32.7
2018-08-13T10:58:57.681Z,32.5
2018-08-13T10:59:59.819Z,32.8
2018-08-13T11:01:02.286Z,32.7
2018-08-13T11:02:04.782Z,32.5
2018-08-13T11:03:06.937Z,32.6
2018-08-13T11:04:09.007Z,33
2018-08-13T11:05:11.130Z,32.9
2018-08-13T11:06:13.257Z,32.8
2018-08-13T11:07:15.356Z,32.7
2018-08-13T11:08:17.471Z,32.1
2018-08-13T11:09:19.597Z,32.2
2018-08-13T11:10:22.697Z,32.3
2018-08-13T11:11:25.142Z,32.4
2018-08-13T11:12:27.259Z,32.5
2018-08-13T11:13:29.385Z,32.3
2018-08-13T11:14:31.843Z,32.1
2018-08-13T11:15:33.967Z,31.8
2018-08-13T11:16:36.070Z,32.3
2018-08-13T11:17:38.477Z,32
2018-08-13T11:18:40.591Z,32.6
2018-08-13T11:19:42.711Z,32.6
2018-08-13T11:20:44.817Z,32.5
2018-08-13T11:21:47.029Z,32.3
2018-08-13T11:22:49.535Z,32.1
2018-08-13T11:23:51.660Z,31.9
2018-08-13T11:24:54.068Z,31.9
2018-08-13T11:25:56.191Z,31.5
2018-08-13T11:26:58.305Z,31.4
2018-08-13T11:28:00.811Z,31.6
2018-08-13T11:29:02.941Z,31.6
2018-08-13T11:30:05.353Z,32.1
2018-08-13T11:31:07.496Z,32.5
2018-08-13T11:32:09.973Z,32.7
2018-08-13T11:33:12.103Z,32.3
2018-08-13T11:34:14.205Z,32.2
2018-08-13T11:35:16.328Z,32
2018-08-13T11:36:18.450Z,32.5
2018-08-13T11:37:20.551Z,32.3
2018-08-13T11:38:22.679Z,32
2018-08-13T11:39:24.807Z,31.9
2018-08-13T11:40:26.897Z,32.2
2018-08-13T11:41:29.024Z,32.1
2018-08-13T11:42:31.537Z,32
2018-08-13T11:43:33.655Z,32.1
2018-08-13T11:44:35.776Z,32.4
2018-08-13T11:45:37.889Z,32.5
2018-08-13T11:46:39.994Z,32.8
2018-08-13T11:47:42.114Z,32.5
2018-08-13T11:48:44.235Z,32.6
2018-08-13T11:49:46.334Z,32.9
2018-08-13T11:50:48.454Z,32.3
2018-08-13T11:51:50.963Z,32.3
2018-08-13T11:52:53.082Z,32.4
2018-08-13T11:53:55.205Z,32.7
2018-08-13T11:54:57.313Z,32.4
2018-08-13T11:55:59.427Z,32.3
2018-08-13T11:57:01.534Z,32.5
2018-08-13T11:58:03.962Z,32.6
2018-08-13T11:59:06.082Z,32.6
2018-08-13T12:00:08.195Z,33.1
2018-08-13T12:01:10.301Z,33.5
2018-08-13T12:02:12.425Z,33.4
2018-08-13T12:03:14.532Z,33.3
2018-08-13T12:04:16.650Z,33
2018-08-13T12:05:19.050Z,33.5
2018-08-13T12:06:21.180Z,33.3
2018-08-13T12:07:23.575Z,33.2
2018-08-13T12:08:25.721Z,33.3
2018-08-13T12:09:27.826Z,33.4
2018-08-13T12:10:30.213Z,33.2
2018-08-13T12:11:32.343Z,33.5
2018-08-13T12:12:34.459Z,33.5
2018-08-13T12:13:36.565Z,33.6
2018-08-13T12:14:38.966Z,33.3
2018-08-13T12:15:41.092Z,33.5
2018-08-13T12:16:43.501Z,33.5
2018-08-13T12:17:45.620Z,33.6
2018-08-13T12:18:48.027Z,34.1
2018-08-13T12:19:50.136Z,34.2
2018-08-13T12:20:52.259Z,34
2018-08-13T12:21:54.387Z,33.5
2018-08-13T12:22:56.491Z,33.8
2018-08-13T12:23:59.005Z,33.8
2018-08-13T12:25:01.124Z,33.8
2018-08-13T12:26:03.236Z,33.9
2018-08-13T12:27:05.656Z,33.8
2018-08-13T12:28:07.769Z,33.8
2018-08-13T12:29:10.171Z,34
2018-08-13T12:30:12.590Z,33.9
2018-08-13T12:31:14.721Z,34
2018-08-13T12:32:16.828Z,33.6
2018-08-13T12:33:18.947Z,33.6
2018-08-13T12:34:21.367Z,33.5
2018-08-13T12:35:23.891Z,33.3
2018-08-13T12:36:26.576Z,33.7
2018-08-13T12:37:29.079Z,33.9
2018-08-13T12:38:31.483Z,33.6
2018-08-13T12:39:33.930Z,33.2
2018-08-13T12:40:36.418Z,32.9
2018-08-13T12:41:38.541Z,32.7
2018-08-13T12:42:40.671Z,33
2018-08-13T12:43:42.776Z,32.6
2018-08-13T12:44:45.193Z,32.7
2018-08-13T12:45:47.311Z,32.7
2018-08-13T12:46:49.420Z,32.5
2018-08-13T12:47:51.829Z,32.4
2018-08-13T12:48:53.961Z,32.4
2018-08-13T12:49:56.077Z,32.6
2018-08-13T12:50:58.492Z,32.4
2018-08-13T12:52:00.993Z,32.1
2018-08-13T12:53:03.101Z,32
2018-08-13T12:54:05.213Z,31.6
2018-08-13T12:55:07.341Z,31.6
2018-08-13T12:56:09.444Z,31.3
2018-08-13T12:57:11.593Z,31.4
2018-08-13T12:58:13.699Z,31.3
2018-08-13T12:59:15.808Z,31.2
2018-08-13T13:00:19.053Z,31.3
2018-08-13T13:01:21.221Z,31.1
2018-08-13T13:02:23.335Z,31.1
2018-08-13T13:03:25.442Z,31
2018-08-13T13:04:27.886Z,31.1
2018-08-13T13:05:29.989Z,30.9
2018-08-13T13:06:32.101Z,30.4
2018-08-13T13:07:34.219Z,30.8
2018-08-13T13:08:36.319Z,31
2018-08-13T13:09:38.446Z,31
2018-08-13T13:10:40.561Z,30.9
2018-08-13T13:11:42.685Z,30.8
2018-08-13T13:12:44.782Z,30.7
2018-08-13T13:13:46.907Z,30.6
2018-08-13T13:14:49.128Z,30.6
2018-08-13T13:15:51.129Z,30.6
2018-08-13T13:16:53.252Z,30.4
2018-08-13T13:17:55.646Z,30.4
2018-08-13T13:18:57.758Z,30.5
2018-08-13T13:20:00.171Z,30.5
2018-08-13T13:21:02.283Z,30.1
2018-08-13T13:22:04.386Z,29.9
2018-08-13T13:23:06.512Z,29.9
2018-08-13T13:24:09.002Z,30
2018-08-13T13:25:11.320Z,30
2018-08-13T13:26:13.458Z,30.2
2018-08-13T13:27:15.575Z,30.1
2018-08-13T13:28:17.683Z,30.1
2018-08-13T13:29:19.809Z,30
2018-08-13T13:30:21.913Z,29.7
2018-08-13T13:31:24.023Z,29.7
2018-08-13T13:32:26.443Z,29.9
2018-08-13T13:33:28.540Z,29.8
2018-08-13T13:34:30.694Z,29.5
2018-08-13T13:35:32.774Z,29.3
2018-08-13T13:36:34.897Z,29
2018-08-13T13:37:36.993Z,29.1
2018-08-13T13:38:39.114Z,29.1
2018-08-13T13:39:41.541Z,29
2018-08-13T13:40:43.646Z,28.8
2018-08-13T13:41:46.075Z,28.7
2018-08-13T13:42:48.172Z,28.6
2018-08-13T13:43:50.291Z,28.4
2018-08-13T13:44:52.396Z,28.3
2018-08-13T13:45:54.517Z,28.1
2018-08-13T13:46:56.617Z,28
2018-08-13T13:47:59.128Z,28
2018-08-13T13:49:01.240Z,27.9
2018-08-13T13:50:03.332Z,27.8
2018-08-13T13:51:05.737Z,27.8
2018-08-13T13:52:07.842Z,27.6
2018-08-13T13:53:09.956Z,27.4